Terminal Aerodrome Forecast
Issued by NWS El Paso, TX

Home | Current Version | Previous Version | Text Only | Print | Product List | Glossary On
Versions: 1 2 3 4 5 6 7 8 9 10 11 12 13 14 15 16 17
000
FTUS44 KEPZ 302334
TAFELP
TAF
KELP 302334Z 3100/3124 VRB06KT P6SM VCTS SCT060CB SCT100 SCT250
     FM310200 06008KT P6SM VCTS SCT070CB SCT120 SCT250
     FM311000 12007KT P6SM SCT100 BKN250=

USA.gov is the U.S. government's official web portal to all federal, state and local government web resources and services.